createdAt,value
2023-01-09T00:00:20.485Z,10.82
2023-01-09T00:02:49.989Z,12.63
2023-01-09T00:05:18.810Z,11.98
2023-01-09T00:07:45.255Z,11.07
2023-01-09T00:10:12.426Z,10.07
2023-01-09T00:12:42.245Z,10.82
2023-01-09T00:15:09.373Z,10.70
2023-01-09T00:17:35.777Z,18.05
2023-01-09T00:20:02.368Z,13.60
2023-01-09T00:22:28.794Z,12.38
2023-01-09T00:24:55.186Z,11.80
2023-01-09T00:27:21.559Z,13.02
2023-01-09T00:29:49.424Z,10.20
2023-01-09T00:32:16.186Z,10.90
2023-01-09T00:34:43.438Z,11.23
2023-01-09T00:37:11.949Z,11.43
2023-01-09T00:39:42.623Z,11.52
2023-01-09T00:42:13.893Z,12.55
2023-01-09T00:44:45.833Z,11.15
2023-01-09T00:47:24.489Z,12.25
2023-01-09T00:49:51.935Z,13.57
2023-01-09T00:52:19.625Z,11.57
2023-01-09T00:54:46.391Z,12.95
2023-01-09T00:57:14.027Z,14.40
2023-01-09T00:59:41.680Z,11.70
2023-01-09T01:02:08.607Z,12.38
2023-01-09T01:04:53.969Z,13.68
2023-01-09T01:07:38.534Z,11.77
2023-01-09T01:10:10.687Z,13.07
2023-01-09T01:12:38.629Z,11.65
2023-01-09T01:15:06.216Z,13.27
2023-01-09T01:17:37.310Z,13.50
2023-01-09T01:20:13.137Z,13.43
2023-01-09T01:22:42.274Z,12.32
2023-01-09T01:25:09.956Z,12.65
2023-01-09T01:27:36.367Z,11.88
2023-01-09T01:30:02.879Z,14.32
2023-01-09T01:32:29.288Z,14.07
2023-01-09T01:34:55.669Z,12.15
2023-01-09T01:37:22.805Z,14.77
2023-01-09T01:39:49.283Z,13.55
2023-01-09T01:42:18.316Z,17.65
2023-01-09T01:45:12.734Z,16.33
2023-01-09T01:48:07.896Z,19.13
2023-01-09T01:50:40.882Z,18.15
2023-01-09T01:53:19.514Z,16.42
2023-01-09T01:56:10.471Z,16.25
2023-01-09T01:59:11.637Z,17.65
2023-01-09T02:01:44.069Z,19.08
2023-01-09T02:04:11.467Z,16.38
2023-01-09T02:06:38.795Z,17.73
2023-01-09T02:09:06.914Z,17.60
2023-01-09T02:11:33.815Z,17.27
2023-01-09T02:14:01.762Z,15.75
2023-01-09T02:16:41.823Z,23.17
2023-01-09T02:19:41.195Z,16.30
2023-01-09T02:22:14.103Z,17.70
2023-01-09T02:24:49.210Z,18.58
2023-01-09T02:27:22.476Z,19.23
2023-01-09T02:30:11.675Z,17.80
2023-01-09T02:33:08.786Z,19.13
2023-01-09T02:35:35.216Z,17.23
2023-01-09T02:38:05.256Z,15.77
2023-01-09T02:40:53.518Z,16.83
2023-01-09T02:43:20.570Z,20.77
2023-01-09T02:45:47.060Z,18.00
2023-01-09T03:06:04.225Z,20.08
2023-01-09T03:08:43.347Z,26.77
2023-01-09T03:11:11.804Z,22.67
2023-01-09T03:13:44.673Z,22.98
2023-01-09T03:16:15.661Z,21.10
2023-01-09T03:18:43.931Z,20.98
2023-01-09T03:21:11.877Z,23.98
2023-01-09T03:23:50.202Z,26.25
2023-01-09T03:26:17.912Z,25.52
2023-01-09T03:28:45.117Z,23.80
2023-01-09T03:31:11.691Z,23.15
2023-01-09T03:33:38.170Z,23.67
2023-01-09T03:36:04.927Z,23.10
2023-01-09T03:38:31.344Z,24.10
2023-01-09T03:40:57.738Z,24.08
2023-01-09T03:43:24.103Z,25.08
2023-01-09T03:45:50.639Z,24.83
2023-01-09T03:48:17.094Z,25.98
2023-01-09T03:50:45.878Z,25.73
2023-01-09T03:53:13.381Z,29.90
2023-01-09T03:55:43.170Z,28.77
2023-01-09T03:58:09.579Z,22.52
2023-01-09T04:00:35.992Z,27.45
2023-01-09T04:03:02.400Z,26.80
2023-01-09T04:05:28.824Z,28.73
2023-01-09T04:07:55.226Z,27.35
2023-01-09T04:10:21.647Z,26.35
2023-01-09T04:12:48.066Z,26.75
2023-01-09T04:15:14.506Z,25.95
2023-01-09T04:17:40.897Z,31.05
2023-01-09T04:20:07.839Z,25.77
2023-01-09T04:22:34.235Z,25.70
2023-01-09T04:25:03.924Z,30.58
2023-01-09T04:27:30.350Z,31.00
2023-01-09T04:29:56.731Z,31.63
2023-01-09T04:32:23.125Z,28.63
2023-01-09T04:34:49.553Z,29.85
2023-01-09T04:37:16.013Z,30.33
2023-01-09T04:39:46.034Z,28.88
2023-01-09T04:42:12.555Z,31.88
2023-01-09T04:44:38.969Z,32.55
2023-01-09T04:47:05.602Z,30.20
2023-01-09T04:49:32.024Z,32.63
2023-01-09T04:51:58.450Z,33.13
2023-01-09T04:54:27.773Z,32.45
2023-01-09T04:56:54.213Z,33.13
2023-01-09T04:59:20.607Z,28.65
2023-01-09T05:01:47.178Z,33.03
2023-01-09T05:04:14.208Z,33.13
2023-01-09T05:06:40.707Z,27.90
2023-01-09T05:09:07.116Z,35.17
2023-01-09T05:11:33.557Z,33.00
2023-01-09T05:13:59.974Z,30.88
2023-01-09T05:16:26.466Z,35.00
2023-01-09T05:18:56.491Z,33.78
2023-01-09T05:21:24.121Z,23.60
2023-01-09T05:23:50.822Z,34.28
2023-01-09T05:26:17.708Z,33.40
2023-01-09T05:28:44.118Z,38.47
2023-01-09T05:31:10.715Z,33.22
2023-01-09T05:33:37.110Z,33.30
2023-01-09T05:36:04.738Z,29.80
2023-01-09T05:38:31.234Z,30.70
2023-01-09T05:40:57.634Z,34.33
2023-01-09T05:43:24.039Z,32.50
2023-01-09T05:45:50.579Z,32.88
2023-01-09T05:48:17.034Z,35.03
2023-01-09T05:50:43.456Z,29.63
2023-01-09T05:53:09.871Z,36.90
2023-01-09T05:55:36.338Z,29.75
2023-01-09T05:58:02.973Z,32.95
2023-01-09T06:00:29.467Z,31.48
2023-01-09T06:02:55.908Z,35.25
2023-01-09T06:05:22.344Z,32.47
2023-01-09T06:07:51.701Z,35.38
2023-01-09T06:10:18.107Z,33.95
2023-01-09T06:12:49.952Z,37.15
2023-01-09T06:15:17.303Z,29.95
2023-01-09T06:17:44.236Z,32.25
2023-01-09T06:20:25.552Z,35.70
2023-01-09T06:22:56.069Z,34.30
2023-01-09T06:25:22.472Z,37.20
2023-01-09T06:27:52.895Z,35.67
2023-01-09T06:30:19.924Z,34.53
2023-01-09T06:32:53.479Z,33.08
2023-01-09T06:35:20.690Z,35.00
2023-01-09T06:37:47.994Z,36.92
2023-01-09T06:40:14.922Z,35.05
2023-01-09T06:42:45.540Z,38.38
2023-01-09T06:45:13.254Z,43.25
2023-01-09T06:47:40.179Z,45.10
2023-01-09T06:50:15.207Z,46.45
2023-01-09T06:52:44.511Z,46.67
2023-01-09T06:55:10.959Z,40.75
2023-01-09T06:57:37.424Z,45.60
2023-01-09T07:00:04.954Z,38.38
2023-01-09T07:02:37.336Z,41.78
2023-01-09T07:05:07.544Z,42.28
2023-01-09T07:07:34.365Z,40.40
2023-01-09T07:10:00.814Z,48.47
2023-01-09T07:12:27.249Z,53.70
2023-01-09T07:14:54.787Z,42.10
2023-01-09T07:17:22.241Z,40.08
2023-01-09T07:19:48.719Z,44.25
2023-01-09T07:22:17.548Z,42.83
2023-01-09T07:24:47.465Z,41.97
2023-01-09T07:27:13.922Z,41.00
2023-01-09T07:29:43.096Z,41.95
2023-01-09T07:32:09.630Z,39.72
2023-01-09T07:34:38.796Z,47.75
2023-01-09T07:37:05.185Z,46.45
2023-01-09T07:39:31.602Z,49.35
2023-01-09T07:41:58.012Z,46.50
2023-01-09T07:44:25.783Z,45.15
2023-01-09T07:46:52.201Z,47.17
2023-01-09T07:49:18.606Z,45.75
2023-01-09T07:51:45.738Z,38.28
2023-01-09T07:54:13.450Z,41.33
2023-01-09T07:56:40.469Z,37.65
2023-01-09T07:59:06.895Z,46.67
2023-01-09T08:01:33.472Z,46.28
2023-01-09T08:04:00.026Z,43.92
2023-01-09T08:06:26.433Z,44.10
2023-01-09T08:08:52.871Z,42.55
2023-01-09T08:11:19.270Z,41.17
2023-01-09T08:13:45.699Z,42.85
2023-01-09T08:16:12.134Z,42.38
2023-01-09T08:18:38.561Z,35.95
2023-01-09T08:21:05.007Z,41.92
2023-01-09T08:23:34.170Z,36.30
2023-01-09T08:26:12.770Z,42.28
2023-01-09T08:28:39.362Z,35.95
2023-01-09T08:31:05.852Z,34.55
2023-01-09T08:33:32.660Z,39.53
2023-01-09T08:35:59.215Z,40.13
2023-01-09T08:38:25.662Z,41.35
2023-01-09T08:41:33.631Z,37.65
2023-01-09T08:44:18.970Z,41.20
2023-01-09T08:47:04.054Z,41.97
2023-01-09T08:49:30.459Z,37.13
2023-01-09T08:51:57.019Z,40.60
2023-01-09T08:54:23.475Z,33.95
2023-01-09T08:56:49.902Z,36.45
2023-01-09T08:59:16.890Z,40.45
2023-01-09T09:01:43.827Z,41.30
2023-01-09T09:04:10.323Z,34.55
2023-01-09T09:06:36.707Z,32.35
2023-01-09T09:09:03.806Z,37.05
2023-01-09T09:11:30.595Z,31.70
2023-01-09T09:13:57.788Z,33.55
2023-01-09T09:16:25.759Z,32.95
2023-01-09T09:18:52.674Z,34.10
2023-01-09T09:21:20.314Z,30.38
2023-01-09T09:23:46.832Z,34.05
2023-01-09T09:26:13.217Z,36.15
2023-01-09T09:28:39.625Z,32.47
2023-01-09T09:31:06.833Z,34.28
2023-01-09T09:33:33.617Z,34.50
2023-01-09T09:36:00.554Z,32.78
2023-01-09T09:38:28.291Z,35.08
2023-01-09T09:41:36.589Z,31.88
2023-01-09T09:44:43.887Z,27.52
2023-01-09T09:47:30.830Z,29.60
2023-01-09T09:50:17.795Z,29.15
2023-01-09T09:52:57.455Z,27.80
2023-01-09T09:55:32.124Z,25.08
2023-01-09T09:58:01.522Z,28.55
2023-01-09T10:00:28.869Z,27.75
2023-01-09T10:03:01.053Z,25.80
2023-01-09T10:05:33.048Z,28.50
2023-01-09T10:08:15.418Z,24.10
2023-01-09T10:10:53.672Z,25.30
2023-01-09T10:13:42.832Z,25.38
2023-01-09T10:16:21.236Z,26.27
2023-01-09T10:19:22.589Z,25.45
2023-01-09T10:24:40.916Z,23.13
2023-01-09T10:27:44.833Z,20.83
2023-01-09T10:30:43.812Z,19.65
2023-01-09T10:33:13.242Z,19.45
2023-01-09T10:35:50.131Z,19.08
2023-01-09T10:38:31.744Z,17.15
2023-01-09T10:41:03.890Z,16.25
2023-01-09T10:43:47.290Z,17.48
2023-01-09T10:46:28.259Z,16.88
2023-01-09T10:49:06.759Z,14.63
2023-01-09T10:51:43.768Z,13.13
2023-01-09T10:54:14.333Z,15.05
2023-01-09T10:56:45.810Z,13.95
2023-01-09T10:59:12.254Z,13.73
2023-01-09T11:01:40.504Z,10.95
2023-01-09T11:04:29.735Z,14.27
2023-01-09T11:07:00.453Z,11.93
2023-01-09T11:09:26.878Z,13.38
2023-01-09T11:11:53.263Z,9.88
2023-01-09T11:14:28.311Z,9.95
2023-01-09T11:16:56.737Z,15.45
2023-01-09T11:19:24.545Z,8.82
2023-01-09T11:22:05.398Z,12.05
2023-01-09T11:24:31.982Z,11.40
2023-01-09T11:27:23.326Z,12.13
2023-01-09T11:30:05.423Z,9.55
2023-01-09T11:32:32.809Z,8.20
2023-01-09T11:34:59.229Z,11.15
2023-01-09T11:37:30.290Z,13.20
2023-01-09T11:42:45.533Z,16.83
2023-01-09T11:45:28.072Z,12.30
2023-01-09T11:47:54.514Z,6.68
2023-01-09T11:50:24.067Z,8.35
2023-01-09T11:53:17.057Z,7.22
2023-01-09T11:55:45.121Z,6.43
2023-01-09T11:58:21.864Z,6.72
2023-01-09T12:00:54.939Z,8.23
2023-01-09T12:03:38.111Z,9.48
2023-01-09T12:06:29.043Z,10.07
2023-01-09T12:08:59.856Z,6.57
2023-01-09T12:11:54.583Z,9.77
2023-01-09T12:14:35.426Z,7.50
2023-01-09T12:17:09.322Z,8.98
2023-01-09T12:19:57.225Z,9.75
2023-01-09T12:22:44.643Z,7.32
2023-01-09T12:25:23.414Z,10.80
2023-01-09T12:28:29.892Z,4.60
2023-01-09T12:31:14.916Z,10.05
2023-01-09T12:33:59.920Z,6.28
2023-01-09T12:36:42.675Z,6.53
2023-01-09T12:39:28.716Z,6.80
2023-01-09T12:42:05.145Z,5.03
2023-01-09T12:45:01.586Z,5.78
2023-01-09T12:47:45.120Z,4.88
2023-01-09T12:50:14.888Z,7.25
2023-01-09T12:52:50.967Z,9.43
2023-01-09T12:55:20.644Z,6.50
2023-01-09T12:57:51.042Z,9.13
2023-01-09T13:00:26.689Z,4.40
2023-01-09T13:03:13.351Z,6.93
2023-01-09T13:05:46.885Z,11.68
2023-01-09T13:08:20.321Z,13.77
2023-01-09T13:10:53.594Z,9.05
2023-01-09T13:13:30.793Z,12.90
2023-01-09T13:15:58.979Z,8.73
2023-01-09T13:18:46.887Z,3.83
2023-01-09T13:21:14.714Z,4.05
2023-01-09T13:24:05.857Z,6.15
2023-01-09T13:26:45.063Z,6.32
2023-01-09T13:29:28.791Z,8.05
2023-01-09T13:32:17.173Z,5.63
2023-01-09T13:34:46.496Z,4.22
2023-01-09T13:37:36.601Z,3.55
2023-01-09T13:40:08.049Z,6.95
2023-01-09T13:42:39.125Z,8.82
2023-01-09T13:45:19.159Z,3.88
2023-01-09T13:47:45.901Z,3.97
2023-01-09T13:50:26.386Z,6.22
2023-01-09T13:52:56.915Z,6.45
2023-01-09T13:55:29.389Z,8.07
2023-01-09T13:58:04.873Z,9.65
2023-01-09T14:00:37.732Z,8.68
2023-01-09T14:03:25.855Z,7.30
2023-01-09T14:05:52.199Z,4.45
2023-01-09T14:08:21.713Z,6.90
2023-01-09T14:10:57.617Z,8.30
2023-01-09T14:13:29.208Z,6.40
2023-01-09T14:16:07.406Z,4.47
2023-01-09T14:18:37.041Z,6.00
2023-01-09T14:24:05.480Z,4.55
2023-01-09T14:26:46.260Z,7.30
2023-01-09T14:29:31.177Z,4.40
2023-01-09T14:32:22.199Z,10.60
2023-01-09T14:35:02.109Z,3.80
2023-01-09T14:37:30.059Z,7.68
2023-01-09T14:39:58.228Z,8.43
2023-01-09T14:42:28.832Z,3.65
2023-01-09T14:45:09.165Z,6.95
2023-01-09T14:47:49.076Z,7.57
2023-01-09T14:50:34.376Z,3.42
2023-01-09T14:53:14.097Z,6.80
2023-01-09T14:55:57.632Z,8.02
2023-01-09T14:58:29.342Z,6.88
2023-01-09T15:01:08.016Z,4.68
2023-01-09T15:03:40.602Z,7.20
2023-01-09T15:06:15.509Z,8.40
2023-01-09T15:08:45.117Z,4.85
2023-01-09T15:11:13.101Z,7.07
2023-01-09T15:13:46.191Z,8.32
2023-01-09T15:16:18.574Z,8.65
2023-01-09T15:18:48.361Z,7.63
2023-01-09T15:21:18.924Z,11.43
2023-01-09T15:23:45.417Z,4.65
2023-01-09T15:26:15.198Z,7.25
2023-01-09T15:28:43.827Z,6.43
2023-01-09T15:31:18.118Z,7.05
2023-01-09T15:33:47.192Z,5.28
2023-01-09T15:36:19.474Z,4.05
2023-01-09T15:38:49.964Z,4.90
2023-01-09T15:41:38.302Z,5.57
2023-01-09T15:44:06.916Z,7.57
2023-01-09T15:46:33.455Z,3.20
2023-01-09T15:49:12.161Z,3.60
2023-01-09T15:51:40.707Z,4.57
2023-01-09T15:54:09.949Z,8.95
2023-01-09T15:56:39.094Z,5.28
2023-01-09T15:59:23.196Z,7.05
2023-01-09T16:02:23.878Z,4.35
2023-01-09T16:04:54.597Z,6.75
2023-01-09T16:07:21.190Z,5.47
2023-01-09T16:09:52.482Z,3.88
2023-01-09T16:12:25.399Z,7.93
2023-01-09T16:14:57.854Z,8.07
2023-01-09T16:17:26.398Z,5.75
2023-01-09T16:19:58.462Z,4.65
2023-01-09T16:22:30.004Z,5.20
2023-01-09T16:24:58.284Z,7.18
2023-01-09T16:27:30.773Z,8.45
2023-01-09T16:30:02.688Z,4.97
2023-01-09T16:32:34.693Z,4.55
2023-01-09T16:35:05.445Z,3.72
2023-01-09T16:37:32.404Z,3.67
2023-01-09T16:40:05.092Z,3.92
2023-01-09T16:42:53.832Z,3.55
2023-01-09T16:45:20.997Z,2.42
2023-01-09T16:47:51.071Z,6.00
2023-01-09T16:50:21.433Z,3.90
2023-01-09T16:52:47.841Z,4.63
2023-01-09T16:55:14.303Z,7.90
2023-01-09T16:57:41.506Z,7.68
2023-01-09T17:00:15.269Z,3.70
2023-01-09T17:02:41.938Z,8.55
2023-01-09T17:05:08.517Z,6.10
2023-01-09T17:07:34.995Z,4.90
2023-01-09T17:10:07.466Z,6.85
2023-01-09T17:12:33.891Z,7.15
2023-01-09T17:15:02.430Z,7.57
2023-01-09T17:17:28.866Z,4.43
2023-01-09T17:19:55.281Z,6.40
2023-01-09T17:22:21.712Z,6.60
2023-01-09T17:25:12.755Z,4.45
2023-01-09T17:27:58.301Z,4.40
2023-01-09T17:30:24.752Z,8.00
2023-01-09T17:32:51.235Z,8.85
2023-01-09T17:35:17.657Z,7.45
2023-01-09T17:37:47.470Z,5.13
2023-01-09T17:40:19.961Z,7.90
2023-01-09T17:42:46.406Z,9.63
2023-01-09T17:45:15.959Z,6.70
2023-01-09T17:47:42.353Z,4.95
2023-01-09T17:50:18.193Z,7.35
2023-01-09T17:52:44.614Z,5.47
2023-01-09T17:55:11.112Z,6.88
2023-01-09T17:57:37.540Z,7.57
2023-01-09T18:00:06.352Z,9.02
2023-01-09T18:02:32.862Z,11.75
2023-01-09T18:04:59.325Z,6.43
2023-01-09T18:07:28.348Z,7.57
2023-01-09T18:09:54.739Z,7.70
2023-01-09T18:12:22.003Z,8.48
2023-01-09T18:14:48.405Z,8.55
2023-01-09T18:17:14.835Z,6.05
2023-01-09T18:19:41.318Z,4.32
2023-01-09T18:22:07.788Z,4.63
2023-01-09T18:24:34.593Z,5.85
2023-01-09T18:27:01.065Z,8.05
2023-01-09T18:29:30.773Z,9.38
2023-01-09T18:31:57.872Z,5.13
2023-01-09T18:34:24.338Z,4.30
2023-01-09T18:36:50.828Z,5.30
2023-01-09T18:39:17.213Z,3.78
2023-01-09T18:41:46.354Z,8.75
2023-01-09T18:44:12.736Z,6.90
2023-01-09T18:46:40.634Z,8.05
2023-01-09T18:49:07.043Z,5.32
2023-01-09T18:51:34.646Z,8.88
2023-01-09T18:54:01.052Z,7.40
2023-01-09T18:56:27.635Z,5.75
2023-01-09T18:58:58.491Z,5.65
2023-01-09T19:01:29.602Z,7.20
2023-01-09T19:03:57.283Z,9.10
2023-01-09T19:06:24.081Z,5.22
2023-01-09T19:08:50.496Z,8.93
2023-01-09T19:11:17.349Z,13.48
2023-01-09T19:13:44.191Z,12.07
2023-01-09T19:16:11.148Z,12.60
2023-01-09T19:18:42.328Z,10.48
2023-01-09T19:21:11.528Z,14.80
2023-01-09T19:23:40.400Z,5.30
2023-01-09T19:26:08.816Z,5.45
2023-01-09T19:28:35.818Z,5.40
2023-01-09T19:31:04.790Z,4.93
2023-01-09T19:33:34.136Z,6.07
2023-01-09T19:36:00.570Z,5.90
2023-01-09T19:38:29.937Z,6.53
2023-01-09T19:40:56.518Z,4.13
2023-01-09T19:43:26.076Z,4.15
2023-01-09T19:45:56.263Z,4.90
2023-01-09T19:48:24.008Z,12.88
2023-01-09T19:51:01.498Z,5.53
2023-01-09T19:53:30.087Z,6.70
2023-01-09T19:56:17.234Z,2.80
2023-01-09T19:58:52.680Z,4.50
2023-01-09T20:01:24.392Z,2.85
2023-01-09T20:03:51.867Z,3.85
2023-01-09T20:06:23.943Z,4.80
2023-01-09T20:08:56.564Z,2.83
2023-01-09T20:11:24.311Z,6.13
2023-01-09T20:13:51.054Z,3.83
2023-01-09T20:16:20.596Z,6.40
2023-01-09T20:18:50.163Z,3.45
2023-01-09T20:21:18.538Z,5.85
2023-01-09T20:23:44.939Z,3.85
2023-01-09T20:26:11.310Z,4.00
2023-01-09T20:28:37.723Z,6.28
2023-01-09T20:31:05.657Z,4.25
2023-01-09T20:33:32.054Z,2.55
2023-01-09T20:36:02.078Z,5.10
2023-01-09T20:38:28.469Z,2.30
2023-01-09T20:40:55.199Z,3.45
2023-01-09T20:43:21.633Z,3.15
2023-01-09T20:45:48.083Z,4.50
2023-01-09T20:48:14.566Z,2.28
2023-01-09T20:50:41.282Z,3.03
2023-01-09T20:53:07.992Z,1.92
2023-01-09T20:55:34.568Z,4.00
2023-01-09T20:58:00.991Z,4.57
2023-01-09T21:00:31.577Z,2.10
2023-01-09T21:02:59.347Z,4.68
2023-01-09T21:05:25.868Z,3.88
2023-01-09T21:07:52.281Z,7.13
2023-01-09T21:10:18.776Z,2.95
2023-01-09T21:12:48.044Z,2.65
2023-01-09T21:15:16.648Z,3.72
2023-01-09T21:17:43.527Z,2.75
2023-01-09T21:20:13.305Z,4.40
2023-01-09T21:22:42.570Z,2.15
2023-01-09T21:25:09.461Z,3.17
2023-01-09T21:27:42.784Z,5.50
2023-01-09T21:30:10.012Z,2.45
2023-01-09T21:32:36.492Z,5.80
2023-01-09T21:35:10.311Z,2.70
2023-01-09T21:37:37.482Z,2.83
2023-01-09T21:40:06.859Z,1.67
2023-01-09T21:42:51.815Z,7.43
2023-01-09T21:45:37.025Z,11.38
2023-01-09T21:48:06.801Z,4.32
2023-01-09T21:50:34.091Z,2.78
2023-01-09T21:53:00.607Z,2.28
2023-01-09T21:55:27.139Z,2.75
2023-01-09T21:57:55.359Z,4.55
2023-01-09T22:00:22.979Z,5.25
2023-01-09T22:02:49.367Z,3.65
2023-01-09T22:05:15.813Z,2.83
2023-01-09T22:07:42.264Z,2.85
2023-01-09T22:10:09.452Z,3.35
2023-01-09T22:12:35.872Z,4.70
2023-01-09T22:15:02.320Z,3.17
2023-01-09T22:17:29.391Z,4.43
2023-01-09T22:19:55.802Z,3.88
2023-01-09T22:22:22.206Z,4.75
2023-01-09T22:24:49.841Z,3.58
2023-01-09T22:27:16.219Z,3.80
2023-01-09T22:29:42.609Z,3.65
2023-01-09T22:32:09.013Z,5.57
2023-01-09T22:34:35.402Z,4.80
2023-01-09T22:37:02.009Z,3.75
2023-01-09T22:39:28.448Z,1.98
2023-01-09T22:41:55.275Z,3.92
2023-01-09T22:44:21.747Z,4.53
2023-01-09T22:46:48.285Z,6.05
2023-01-09T22:49:14.708Z,6.55
2023-01-09T22:51:41.107Z,6.43
2023-01-09T22:54:07.501Z,7.65
2023-01-09T22:56:33.923Z,3.58
2023-01-09T22:59:01.037Z,2.70
2023-01-09T23:01:28.155Z,5.07
2023-01-09T23:03:54.561Z,5.38
2023-01-09T23:06:22.781Z,4.15
2023-01-09T23:08:50.680Z,5.10
2023-01-09T23:11:43.129Z,7.53
2023-01-09T23:14:10.484Z,3.92
2023-01-09T23:16:37.125Z,4.32
2023-01-09T23:19:06.923Z,3.25
2023-01-09T23:21:33.326Z,6.40
2023-01-09T23:23:59.780Z,3.90
2023-01-09T23:26:26.165Z,4.22
2023-01-09T23:28:52.603Z,4.00
2023-01-09T23:31:19.035Z,7.05
2023-01-09T23:33:45.482Z,5.68
2023-01-09T23:36:11.884Z,2.92
2023-01-09T23:38:38.960Z,7.28
2023-01-09T23:41:05.347Z,5.43
2023-01-09T23:43:31.748Z,7.03
2023-01-09T23:45:58.187Z,3.97
2023-01-09T23:48:25.243Z,5.28
2023-01-09T23:50:53.912Z,7.47
2023-01-09T23:53:22.105Z,3.47
2023-01-09T23:55:49.615Z,5.57
2023-01-09T23:58:16.033Z,4.47
